createdAt,value
2023-03-19T00:00:02.796Z,5.6
2023-03-19T00:15:03.362Z,5.6
2023-03-19T00:30:02.676Z,5.4
2023-03-19T00:45:03.320Z,5.2
2023-03-19T01:00:02.544Z,5.0
2023-03-19T01:15:02.981Z,4.7
2023-03-19T01:30:02.445Z,4.7
2023-03-19T01:45:02.906Z,4.8
2023-03-19T02:00:02.364Z,4.8
2023-03-19T02:15:02.756Z,4.8
2023-03-19T02:30:03.155Z,5.2
2023-03-19T02:45:02.641Z,5.6
2023-03-19T03:00:03.088Z,5.7
2023-03-19T03:15:02.494Z,5.7
2023-03-19T03:30:02.970Z,5.6
2023-03-19T03:45:02.385Z,5.5
2023-03-19T04:00:02.810Z,5.5
2023-03-19T04:15:03.411Z,5.6
2023-03-19T04:30:02.694Z,5.4
2023-03-19T04:45:03.158Z,5.7
2023-03-19T05:00:02.573Z,5.7
2023-03-19T05:15:03.036Z,5.7
2023-03-19T05:30:02.460Z,6.1
2023-03-19T05:45:02.880Z,6.2
2023-03-19T06:00:02.414Z,6.4
2023-03-19T06:15:02.772Z,6.4
2023-03-19T06:30:02.494Z,7.0
2023-03-19T06:45:02.724Z,7.5
2023-03-19T07:00:03.098Z,7.9
2023-03-19T07:15:02.530Z,8.5
2023-03-19T07:30:02.973Z,9.4
2023-03-19T07:45:02.437Z,10.1
2023-03-19T08:00:02.871Z,11.6
2023-03-19T08:15:02.435Z,11.6
2023-03-19T08:30:02.770Z,11.6
2023-03-19T08:45:03.410Z,11.3
2023-03-19T09:00:02.658Z,11.8
2023-03-19T09:15:03.090Z,12.1
2023-03-19T09:30:02.532Z,12.5
2023-03-19T09:45:02.962Z,12.3
2023-03-19T10:00:02.472Z,12.2
2023-03-19T10:15:02.827Z,12.2
2023-03-19T10:30:02.483Z,12.9
2023-03-19T10:45:02.746Z,12.5
2023-03-19T11:00:03.179Z,12.3
2023-03-19T11:15:02.612Z,12.3
2023-03-19T11:30:03.072Z,12.8
2023-03-19T11:45:02.497Z,12.8
2023-03-19T12:00:02.889Z,12.6
2023-03-19T12:15:02.512Z,13.4
2023-03-19T12:30:02.824Z,14.0
2023-03-19T12:45:02.426Z,15.6
2023-03-19T13:00:02.681Z,16.7
2023-03-19T13:15:03.123Z,16.0
2023-03-19T13:30:02.586Z,16.1
2023-03-19T13:45:04.067Z,15.3
2023-03-19T14:00:02.521Z,14.6
2023-03-19T14:15:02.866Z,14.5
2023-03-19T14:30:02.512Z,14.4
2023-03-19T14:45:02.749Z,14.5
2023-03-19T15:00:03.212Z,14.9
2023-03-19T15:15:02.626Z,15.0
2023-03-19T15:30:13.530Z,14.8
2023-03-19T15:45:02.532Z,14.6
2023-03-19T16:00:03.024Z,14.5
2023-03-19T16:15:02.540Z,14.3
2023-03-19T16:30:02.919Z,14.1
2023-03-19T16:45:02.228Z,13.9
2023-03-19T17:00:02.686Z,13.7
2023-03-19T17:15:03.097Z,13.3
2023-03-19T17:30:02.528Z,12.8
2023-03-19T17:45:02.975Z,11.9
2023-03-19T18:00:02.565Z,11.0
2023-03-19T18:15:02.859Z,10.1
2023-03-19T18:30:02.478Z,9.4
2023-03-19T18:45:02.738Z,8.9
2023-03-19T19:00:03.209Z,8.5
2023-03-19T19:15:02.667Z,8.9
2023-03-19T19:30:03.062Z,10.0
2023-03-19T19:45:02.579Z,10.0
2023-03-19T20:00:02.948Z,10.1
2023-03-19T20:15:02.582Z,9.9
2023-03-19T20:30:02.809Z,9.9
2023-03-19T20:45:03.273Z,9.7
2023-03-19T21:00:02.699Z,9.4
2023-03-19T21:15:03.136Z,9.1
2023-03-19T21:30:02.604Z,8.6
2023-03-19T21:45:02.983Z,7.8
2023-03-19T22:00:02.607Z,7.1
2023-03-19T22:15:02.870Z,6.7
2023-03-19T22:30:02.314Z,6.2
2023-03-19T22:45:02.751Z,5.7
2023-03-19T23:00:03.177Z,5.4
2023-03-19T23:15:02.626Z,5.1
2023-03-19T23:30:03.059Z,4.9
2023-03-19T23:45:02.612Z,4.5
